Time,TemperatureF,DewpointF,PressureIn,WindDirection,WindDirectionDegrees,WindSpeedMPH,WindSpeedGustMPH,Humidity,HourlyPrecipIn,Conditions,Clouds,dailyrainin,SoftwareType,DateUTC
2013-03-01 00:00:00,28.8,26.8,-100.00,NW,311,8.0,11.0,92,0.00,,,0.00,meteohub,2013-03-01 06:00:00,
2013-03-01 00:05:00,28.8,26.8,-100.00,WNW,294,6.0,11.0,92,0.00,,,0.00,meteohub,2013-03-01 06:05:00,
2013-03-01 00:10:00,28.8,26.8,-100.00,WNW,300,3.0,11.0,92,0.00,,,0.00,meteohub,2013-03-01 06:10:00,
2013-03-01 00:15:00,28.6,26.6,-100.00,WNW,302,6.0,11.0,92,0.00,,,0.00,meteohub,2013-03-01 06:15:00,
2013-03-01 00:20:00,28.6,26.6,-100.00,West,281,2.0,9.0,92,0.00,,,0.00,meteohub,2013-03-01 06:20:00,
2013-03-01 00:25:00,28.6,26.6,-100.00,WNW,294,5.0,10.0,92,0.00,,,0.00,meteohub,2013-03-01 06:25:00,
2013-03-01 00:30:00,28.6,26.6,-100.00,NW,313,8.0,10.0,92,0.00,,,0.00,meteohub,2013-03-01 06:30:00,
2013-03-01 00:32:00,28.4,26.4,-100.00,WNW,295,4.0,10.0,92,0.00,,,0.00,meteohub,2013-03-01 06:32:00,
2013-03-01 00:37:00,28.4,26.4,-100.00,WNW,294,3.0,10.0,92,0.00,,,0.00,meteohub,2013-03-01 06:37:00,
2013-03-01 00:42:00,28.4,26.4,-100.00,WNW,291,0.0,10.0,92,0.00,,,0.00,meteohub,2013-03-01 06:42:00,
2013-03-01 00:47:00,28.4,26.4,-100.00,NW,305,4.0,7.0,92,0.00,,,0.00,meteohub,2013-03-01 06:47:00,
2013-03-01 00:52:00,28.2,26.2,-100.00,WNW,298,3.0,7.0,92,0.00,,,0.00,meteohub,2013-03-01 06:52:00,
2013-03-01 00:57:00,28.2,26.2,-100.00,WNW,296,3.0,7.0,92,0.00,,,0.00,meteohub,2013-03-01 06:57:00,
2013-03-01 01:02:00,28.2,26.2,-100.00,NW,306,4.0,7.0,92,0.00,,,0.00,meteohub,2013-03-01 07:02:00,
2013-03-01 01:07:00,28.2,26.2,-100.00,NW,309,1.0,9.0,92,0.00,,,0.00,meteohub,2013-03-01 07:07:00,
2013-03-01 01:11:00,28.2,26.2,-100.00,NW,311,6.0,9.0,92,0.00,,,0.00,meteohub,2013-03-01 07:11:00,
2013-03-01 01:16:00,28.0,26.1,-100.00,NW,304,3.0,9.0,92,0.00,,,0.00,meteohub,2013-03-01 07:16:00,
2013-03-01 01:21:00,28.0,26.1,-100.00,WNW,297,0.0,9.0,92,0.00,,,0.00,meteohub,2013-03-01 07:21:00,
2013-03-01 01:26:00,28.0,26.1,-100.00,WNW,300,3.0,8.0,92,0.00,,,0.00,meteohub,2013-03-01 07:26:00,
2013-03-01 01:31:00,28.0,26.1,-100.00,WNW,292,0.0,7.0,92,0.00,,,0.00,meteohub,2013-03-01 07:31:00,
2013-03-01 01:36:00,28.0,26.1,-100.00,WNW,300,5.0,7.0,92,0.00,,,0.00,meteohub,2013-03-01 07:36:00,
2013-03-01 01:41:00,28.0,26.1,-100.00,West,265,2.0,7.0,92,0.00,,,0.00,meteohub,2013-03-01 07:41:00,
2013-03-01 01:46:00,28.0,26.1,-100.00,WNW,298,4.0,7.0,92,0.00,,,0.00,meteohub,2013-03-01 07:46:00,
2013-03-01 01:51:00,28.0,26.1,-100.00,WNW,293,1.0,9.0,92,0.00,,,0.00,meteohub,2013-03-01 07:51:00,
2013-03-01 01:56:00,28.0,26.1,-100.00,WNW,302,4.0,9.0,92,0.00,,,0.00,meteohub,2013-03-01 07:56:00,
2013-03-01 02:01:00,27.9,25.9,-100.00,WNW,283,4.0,7.0,92,0.00,,,0.00,meteohub,2013-03-01 08:01:00,
2013-03-01 02:06:00,27.9,25.9,-100.00,NW,306,4.0,9.0,92,0.00,,,0.00,meteohub,2013-03-01 08:06:00,
2013-03-01 02:12:00,27.9,25.9,-100.00,WSW,256,1.0,10.0,92,0.00,,,0.00,meteohub,2013-03-01 08:12:00,
2013-03-01 02:17:00,27.9,25.9,-100.00,West,276,6.0,10.0,92,0.00,,,0.00,meteohub,2013-03-01 08:17:00,
2013-03-01 02:22:00,27.9,25.9,-100.00,WNW,288,1.0,10.0,92,0.00,,,0.00,meteohub,2013-03-01 08:22:00,
2013-03-01 02:27:00,27.7,25.7,-100.00,WNW,297,2.0,6.0,92,0.00,,,0.00,meteohub,2013-03-01 08:27:00,
2013-03-01 02:32:00,27.7,25.7,-100.00,WNW,292,2.0,9.0,92,0.00,,,0.00,meteohub,2013-03-01 08:32:00,
2013-03-01 02:37:00,27.7,25.7,-100.00,WNW,290,0.0,9.0,92,0.00,,,0.00,meteohub,2013-03-01 08:37:00,
2013-03-01 02:42:00,27.7,25.7,-100.00,WNW,296,3.0,9.0,92,0.00,,,0.00,meteohub,2013-03-01 08:42:00,
2013-03-01 02:47:00,27.7,25.7,-100.00,WNW,300,3.0,9.0,92,0.00,,,0.00,meteohub,2013-03-01 08:47:00,
2013-03-01 02:52:00,27.7,25.7,-100.00,WNW,297,0.0,10.0,92,0.00,,,0.00,meteohub,2013-03-01 08:52:00,
2013-03-01 02:57:00,27.5,25.5,-100.00,WNW,297,2.0,10.0,92,0.00,,,0.00,meteohub,2013-03-01 08:57:00,
2013-03-01 03:02:00,27.5,25.5,-100.00,WNW,287,3.0,10.0,92,0.00,,,0.00,meteohub,2013-03-01 09:02:00,
2013-03-01 03:07:00,27.5,25.5,-100.00,WNW,298,2.0,9.0,92,0.00,,,0.00,meteohub,2013-03-01 09:07:00,
2013-03-01 03:12:00,27.5,25.5,-100.00,WNW,300,0.0,9.0,92,0.00,,,0.00,meteohub,2013-03-01 09:12:00,
2013-03-01 03:17:00,27.5,25.5,-100.00,WNW,298,3.0,7.0,92,0.00,,,0.00,meteohub,2013-03-01 09:17:00,
2013-03-01 03:22:00,27.5,25.5,-100.00,WNW,294,5.0,10.0,92,0.00,,,0.00,meteohub,2013-03-01 09:22:00,
2013-03-01 03:27:00,27.3,25.3,-100.00,WNW,296,4.0,11.0,92,0.00,,,0.00,meteohub,2013-03-01 09:27:00,
2013-03-01 03:32:00,27.3,25.3,-100.00,NW,322,5.0,11.0,92,0.00,,,0.00,meteohub,2013-03-01 09:32:00,
2013-03-01 03:37:00,27.3,25.3,-100.00,WNW,284,2.0,11.0,92,0.00,,,0.00,meteohub,2013-03-01 09:37:00,
2013-03-01 03:42:00,27.3,25.0,-100.00,NW,306,5.0,10.0,91,0.00,,,0.00,meteohub,2013-03-01 09:42:00,
2013-03-01 03:47:00,27.3,25.0,-100.00,WNW,302,2.0,10.0,91,0.00,,,0.00,meteohub,2013-03-01 09:47:00,
2013-03-01 03:52:00,27.3,25.0,-100.00,WNW,298,2.0,9.0,91,0.00,,,0.00,meteohub,2013-03-01 09:52:00,
2013-03-01 03:57:00,27.3,25.0,-100.00,WNW,295,0.0,9.0,91,0.00,,,0.00,meteohub,2013-03-01 09:57:00,
2013-03-01 04:02:00,27.3,25.0,-100.00,NW,313,7.0,10.0,91,0.00,,,0.00,meteohub,2013-03-01 10:02:00,
2013-03-01 04:07:00,27.1,24.8,-100.00,NW,305,6.0,11.0,91,0.00,,,0.00,meteohub,2013-03-01 10:07:00,
2013-03-01 04:12:00,27.1,24.8,-100.00,NW,305,6.0,11.0,91,0.00,,,0.00,meteohub,2013-03-01 10:12:00,
2013-03-01 04:17:00,27.1,24.8,-100.00,NW,313,5.0,13.0,91,0.00,,,0.00,meteohub,2013-03-01 10:17:00,
2013-03-01 04:22:00,27.1,24.8,-100.00,NW,305,6.0,13.0,91,0.00,,,0.00,meteohub,2013-03-01 10:22:00,
2013-03-01 04:27:00,27.1,24.8,-100.00,WNW,302,4.0,13.0,91,0.00,,,0.00,meteohub,2013-03-01 10:27:00,
2013-03-01 04:32:00,27.1,24.8,-100.00,WNW,287,4.0,11.0,91,0.00,,,0.00,meteohub,2013-03-01 10:32:00,
2013-03-01 04:37:00,27.1,24.8,-100.00,WNW,298,5.0,11.0,91,0.00,,,0.00,meteohub,2013-03-01 10:37:00,
2013-03-01 04:42:00,27.1,24.8,-100.00,WNW,296,7.0,13.0,91,0.00,,,0.00,meteohub,2013-03-01 10:42:00,
2013-03-01 04:47:00,27.1,24.8,-100.00,WNW,296,3.0,13.0,91,0.00,,,0.00,meteohub,2013-03-01 10:47:00,
2013-03-01 04:52:00,27.1,24.8,-100.00,NW,304,3.0,13.0,91,0.00,,,0.00,meteohub,2013-03-01 10:52:00,
2013-03-01 04:57:00,27.1,24.8,-100.00,NW,304,6.0,12.0,91,0.00,,,0.00,meteohub,2013-03-01 10:57:00,
2013-03-01 05:02:00,27.1,24.8,-100.00,WNW,296,3.0,12.0,91,0.00,,,0.00,meteohub,2013-03-01 11:02:00,
2013-03-01 05:07:00,27.0,24.6,-100.00,WNW,298,3.0,11.0,91,0.00,,,0.00,meteohub,2013-03-01 11:07:00,
2013-03-01 05:12:00,27.0,24.6,-100.00,West,280,3.0,7.0,91,0.00,,,0.00,meteohub,2013-03-01 11:12:00,
2013-03-01 05:17:00,27.0,24.6,-100.00,NW,308,3.0,9.0,91,0.00,,,0.00,meteohub,2013-03-01 11:17:00,
2013-03-01 05:22:00,27.0,24.6,-100.00,WNW,297,2.0,9.0,91,0.00,,,0.00,meteohub,2013-03-01 11:22:00,
2013-03-01 05:27:00,27.0,24.6,-100.00,West,278,3.0,9.0,91,0.00,,,0.00,meteohub,2013-03-01 11:27:00,
2013-03-01 05:32:00,27.0,24.6,-100.00,NW,306,5.0,11.0,91,0.00,,,0.00,meteohub,2013-03-01 11:32:00,
2013-03-01 05:37:00,27.0,24.6,-100.00,NW,312,5.0,11.0,91,0.00,,,0.00,meteohub,2013-03-01 11:37:00,
2013-03-01 05:42:00,27.0,24.6,-100.00,WNW,302,3.0,8.0,91,0.00,,,0.00,meteohub,2013-03-01 11:42:00,
2013-03-01 05:47:00,27.0,24.6,-100.00,NW,307,2.0,9.0,91,0.00,,,0.00,meteohub,2013-03-01 11:47:00,
2013-03-01 05:52:00,27.0,24.6,-100.00,NW,308,2.0,9.0,91,0.00,,,0.00,meteohub,2013-03-01 11:52:00,
2013-03-01 06:00:00,26.8,24.4,-100.00,NW,307,2.0,12.0,91,0.00,,,0.00,meteohub,2013-03-01 12:00:00,
2013-03-01 06:05:00,27.0,24.6,-100.00,WNW,300,0.0,12.0,91,0.00,,,0.00,meteohub,2013-03-01 12:05:00,
2013-03-01 06:10:00,26.8,24.4,-100.00,WNW,298,3.0,10.0,91,0.00,,,0.00,meteohub,2013-03-01 12:10:00,
2013-03-01 06:15:00,26.8,24.8,-100.00,NW,309,7.0,12.0,92,0.00,,,0.00,meteohub,2013-03-01 12:15:00,
2013-03-01 06:20:00,26.8,24.8,-100.00,WNW,302,4.0,12.0,92,0.00,,,0.00,meteohub,2013-03-01 12:20:00,
2013-03-01 06:25:00,26.8,24.8,-100.00,NW,313,5.0,12.0,92,0.00,,,0.00,meteohub,2013-03-01 12:25:00,
2013-03-01 06:30:00,26.8,24.8,-100.00,NW,309,5.0,11.0,92,0.00,,,0.00,meteohub,2013-03-01 12:30:00,
2013-03-01 06:35:00,26.8,24.8,-100.00,NW,313,3.0,10.0,92,0.00,,,0.00,meteohub,2013-03-01 12:35:00,
2013-03-01 06:40:00,26.8,24.8,-100.00,WNW,303,2.0,10.0,92,0.00,,,0.00,meteohub,2013-03-01 12:40:00,
2013-03-01 06:45:00,26.8,24.8,-100.00,WNW,302,2.0,7.0,92,0.00,,,0.00,meteohub,2013-03-01 12:45:00,
2013-03-01 06:50:00,26.8,24.8,-100.00,WNW,301,4.0,7.0,92,0.00,,,0.00,meteohub,2013-03-01 12:50:00,
2013-03-01 06:55:00,26.8,24.8,-100.00,NW,304,2.0,11.0,92,0.00,,,0.00,meteohub,2013-03-01 12:55:00,
2013-03-01 07:00:00,26.8,24.8,-100.00,NW,310,6.0,11.0,92,0.00,,,0.00,meteohub,2013-03-01 13:00:00,
2013-03-01 07:05:00,27.0,25.0,-100.00,WNW,296,0.0,11.0,92,0.00,,,0.00,meteohub,2013-03-01 13:05:00,
2013-03-01 07:10:00,27.0,25.0,-100.00,NW,316,3.0,7.0,92,0.00,,,0.00,meteohub,2013-03-01 13:10:00,
2013-03-01 07:15:00,27.0,25.0,-100.00,NW,304,5.0,7.0,92,0.00,,,0.00,meteohub,2013-03-01 13:15:00,
2013-03-01 07:20:00,27.0,25.0,-100.00,NW,310,3.0,9.0,92,0.00,,,0.00,meteohub,2013-03-01 13:20:00,
2013-03-01 07:25:00,27.1,25.2,-100.00,WNW,302,3.0,9.0,92,0.00,,,0.00,meteohub,2013-03-01 13:25:00,
2013-03-01 07:30:00,27.1,25.2,-100.00,NW,321,2.0,9.0,92,0.00,,,0.00,meteohub,2013-03-01 13:30:00,
2013-03-01 07:35:00,27.1,25.2,-100.00,NW,316,0.0,6.0,92,0.00,,,0.00,meteohub,2013-03-01 13:35:00,
2013-03-01 07:40:00,27.3,25.3,-100.00,NW,323,3.0,6.0,92,0.00,,,0.00,meteohub,2013-03-01 13:40:00,
2013-03-01 07:45:00,27.3,25.3,-100.00,NW,321,2.0,6.0,92,0.00,,,0.00,meteohub,2013-03-01 13:45:00,
2013-03-01 07:50:00,27.3,25.3,-100.00,NW,304,0.0,6.0,92,0.00,,,0.00,meteohub,2013-03-01 13:50:00,
2013-03-01 07:55:00,27.5,25.5,-100.00,NW,319,1.0,6.0,92,0.00,,,0.00,meteohub,2013-03-01 13:55:00,
2013-03-01 08:00:00,27.7,25.7,-100.00,NW,326,2.0,6.0,92,0.00,,,0.00,meteohub,2013-03-01 14:00:00,
2013-03-01 08:05:00,27.7,25.7,-100.00,NNW,327,0.0,6.0,92,0.00,,,0.00,meteohub,2013-03-01 14:05:00,
2013-03-01 08:10:00,27.9,25.9,-100.00,NW,322,0.0,5.0,92,0.00,,,0.00,meteohub,2013-03-01 14:10:00,
2013-03-01 08:15:00,28.0,26.1,-100.00,NW,319,0.0,4.0,92,0.00,,,0.00,meteohub,2013-03-01 14:15:00,
2013-03-01 08:20:00,28.0,26.1,-100.00,NW,313,2.0,5.0,92,0.00,,,0.00,meteohub,2013-03-01 14:20:00,
2013-03-01 08:25:00,28.2,26.2,-100.00,NW,323,1.0,6.0,92,0.00,,,0.00,meteohub,2013-03-01 14:25:00,
2013-03-01 08:30:00,28.4,26.4,-100.00,NNW,342,0.0,6.0,92,0.00,,,0.00,meteohub,2013-03-01 14:30:00,
2013-03-01 08:35:00,28.6,26.6,-100.00,NNW,340,0.0,6.0,92,0.00,,,0.00,meteohub,2013-03-01 14:35:00,
2013-03-01 08:40:00,28.6,26.6,-100.00,NNE,31,0.0,6.0,92,0.00,,,0.00,meteohub,2013-03-01 14:40:00,
2013-03-01 08:45:00,28.4,26.1,-100.00,NE,41,2.0,5.0,91,0.00,,,0.00,meteohub,2013-03-01 14:45:00,
2013-03-01 08:50:00,28.2,25.9,-100.00,NNE,14,0.0,7.0,91,0.00,,,0.00,meteohub,2013-03-01 14:50:00,
2013-03-01 08:55:00,28.2,25.7,-100.00,ENE,61,3.0,7.0,90,0.00,,,0.00,meteohub,2013-03-01 14:55:00,
2013-03-01 09:01:00,28.0,25.5,-100.00,ENE,58,4.0,7.0,90,0.00,,,0.00,meteohub,2013-03-01 15:01:00,
2013-03-01 09:06:00,28.4,25.5,-100.00,NE,38,0.0,7.0,89,0.00,,,0.00,meteohub,2013-03-01 15:06:00,
2013-03-01 09:11:00,28.6,25.7,-100.00,NE,46,2.0,7.0,89,0.00,,,0.00,meteohub,2013-03-01 15:11:00,
2013-03-01 09:16:00,28.6,25.7,-100.00,ENE,77,0.0,5.0,89,0.00,,,0.00,meteohub,2013-03-01 15:16:00,
2013-03-01 09:21:00,28.6,25.7,-100.00,East,79,0.0,9.0,89,0.00,,,0.00,meteohub,2013-03-01 15:21:00,
2013-03-01 09:26:00,28.4,25.3,-100.00,ENE,69,4.0,9.0,88,0.00,,,0.00,meteohub,2013-03-01 15:26:00,
2013-03-01 09:31:00,28.4,25.3,-100.00,SSE,151,1.0,9.0,88,0.00,,,0.00,meteohub,2013-03-01 15:31:00,
2013-03-01 09:36:00,28.2,24.8,-100.00,SW,214,0.0,6.0,87,0.00,,,0.00,meteohub,2013-03-01 15:36:00,
2013-03-01 09:41:00,28.6,25.0,-100.00,WNW,298,3.0,6.0,86,0.00,,,0.00,meteohub,2013-03-01 15:41:00,
2013-03-01 09:46:00,28.4,24.4,-100.00,WSW,242,1.0,6.0,85,0.00,,,0.00,meteohub,2013-03-01 15:46:00,
2013-03-01 09:51:00,28.4,24.4,-100.00,ENE,72,4.0,11.0,85,0.00,,,0.00,meteohub,2013-03-01 15:51:00,
2013-03-01 09:56:00,28.6,24.6,-100.00,NE,51,3.0,11.0,85,0.00,,,0.00,meteohub,2013-03-01 15:56:00,
2013-03-01 10:01:00,28.8,25.2,-100.00,NE,47,3.0,11.0,86,0.00,,,0.00,meteohub,2013-03-01 16:01:00,
2013-03-01 10:06:00,28.8,24.8,-100.00,East,91,4.0,11.0,85,0.01,,,0.01,meteohub,2013-03-01 16:06:00,
2013-03-01 10:11:00,28.8,26.8,-100.00,ESE,103,3.0,10.0,92,0.01,,,0.01,meteohub,2013-03-01 16:11:00,
2013-03-01 10:16:00,28.6,24.6,-100.00,North,355,2.0,10.0,85,0.02,,,0.02,meteohub,2013-03-01 16:16:00,
2013-03-01 10:21:00,28.8,24.8,-100.00,West,267,1.0,11.0,85,0.02,,,0.02,meteohub,2013-03-01 16:21:00,
2013-03-01 10:26:00,29.1,25.2,-100.00,ENE,57,0.0,11.0,85,0.02,,,0.02,meteohub,2013-03-01 16:26:00,
2013-03-01 10:31:00,29.3,25.2,-100.00,NW,321,1.0,11.0,84,0.02,,,0.02,meteohub,2013-03-01 16:31:00,
2013-03-01 10:36:00,29.5,25.0,-100.00,SSW,210,3.0,13.0,83,0.02,,,0.02,meteohub,2013-03-01 16:36:00,
2013-03-01 10:41:00,29.5,25.0,-100.00,NNW,332,6.0,14.0,83,0.02,,,0.02,meteohub,2013-03-01 16:41:00,
2013-03-01 10:46:00,29.5,24.6,-100.00,NW,311,7.0,14.0,82,0.03,,,0.03,meteohub,2013-03-01 16:46:00,
2013-03-01 10:51:00,29.5,24.4,-100.00,ESE,112,3.0,14.0,81,0.03,,,0.03,meteohub,2013-03-01 16:51:00,
2013-03-01 10:56:00,29.8,24.8,-100.00,NNW,330,6.0,13.0,81,0.03,,,0.03,meteohub,2013-03-01 16:56:00,
2013-03-01 11:01:00,30.0,24.6,-100.00,NNE,33,5.0,13.0,80,0.02,,,0.03,meteohub,2013-03-01 17:01:00,
2013-03-01 11:06:00,30.2,24.8,-100.00,North,11,0.0,11.0,80,0.03,,,0.04,meteohub,2013-03-01 17:06:00,
2013-03-01 11:11:00,30.4,24.6,-100.00,ENE,76,1.0,11.0,79,0.03,,,0.04,meteohub,2013-03-01 17:11:00,
2013-03-01 11:16:00,30.6,24.4,-100.00,NE,35,3.0,10.0,78,0.02,,,0.04,meteohub,2013-03-01 17:16:00,
2013-03-01 11:21:00,30.7,24.6,-100.00,NW,307,0.0,10.0,78,0.02,,,0.04,meteohub,2013-03-01 17:21:00,
2013-03-01 11:26:00,30.6,24.8,-100.00,NE,52,3.0,9.0,79,0.02,,,0.04,meteohub,2013-03-01 17:26:00,
2013-03-01 11:31:00,30.4,24.6,-100.00,NE,44,0.0,9.0,79,0.03,,,0.05,meteohub,2013-03-01 17:31:00,
2013-03-01 11:36:00,30.4,24.6,-100.00,SSE,164,2.0,15.0,79,0.03,,,0.05,meteohub,2013-03-01 17:36:00,
2013-03-01 11:41:00,30.6,24.8,-100.00,NNE,26,2.0,15.0,79,0.03,,,0.05,meteohub,2013-03-01 17:41:00,
2013-03-01 11:46:00,30.6,24.8,-100.00,ENE,67,0.0,15.0,79,0.03,,,0.06,meteohub,2013-03-01 17:46:00,
2013-03-01 11:51:00,30.9,25.5,-100.00,NW,314,5.0,14.0,80,0.03,,,0.06,meteohub,2013-03-01 17:51:00,
2013-03-01 11:56:00,31.1,25.0,-100.00,WNW,296,6.0,11.0,78,0.03,,,0.06,meteohub,2013-03-01 17:56:00,
2013-03-01 12:01:00,30.9,24.8,-100.00,WNW,284,2.0,12.0,78,0.02,,,0.06,meteohub,2013-03-01 18:01:00,
2013-03-01 12:06:00,30.9,24.8,-100.00,NW,311,6.0,12.0,78,0.02,,,0.06,meteohub,2013-03-01 18:06:00,
2013-03-01 12:11:00,30.9,25.5,-100.00,WNW,300,5.0,12.0,80,0.02,,,0.06,meteohub,2013-03-01 18:11:00,
2013-03-01 12:16:00,30.7,25.0,-100.00,SE,138,0.0,11.0,79,0.02,,,0.06,meteohub,2013-03-01 18:16:00,
2013-03-01 12:21:00,30.9,25.5,-100.00,NW,317,7.0,12.0,80,0.02,,,0.06,meteohub,2013-03-01 18:21:00,
2013-03-01 12:26:00,30.7,25.3,-100.00,WNW,302,6.0,12.0,80,0.01,,,0.06,meteohub,2013-03-01 18:26:00,
2013-03-01 12:31:00,30.4,25.0,-100.00,NW,316,3.0,11.0,80,0.01,,,0.06,meteohub,2013-03-01 18:31:00,
2013-03-01 12:36:00,30.6,24.8,-100.00,NW,322,2.0,11.0,79,0.01,,,0.06,meteohub,2013-03-01 18:36:00,
2013-03-01 12:41:00,30.7,25.0,-100.00,NE,48,4.0,11.0,79,0.02,,,0.07,meteohub,2013-03-01 18:41:00,
2013-03-01 12:46:00,30.7,24.6,-100.00,NW,312,4.0,11.0,78,0.01,,,0.07,meteohub,2013-03-01 18:46:00,
2013-03-01 12:52:00,30.7,24.6,-100.00,NW,325,5.0,10.0,78,0.01,,,0.07,meteohub,2013-03-01 18:52:00,
2013-03-01 12:57:00,30.6,24.4,-100.00,NNW,327,9.0,12.0,78,0.01,,,0.07,meteohub,2013-03-01 18:57:00,
2013-03-01 13:02:00,30.4,24.1,-100.00,NNW,346,6.0,13.0,77,0.01,,,0.07,meteohub,2013-03-01 19:02:00,
2013-03-01 13:07:00,30.6,24.3,-100.00,NNE,13,3.0,14.0,77,0.01,,,0.07,meteohub,2013-03-01 19:07:00,
2013-03-01 13:12:00,30.7,24.1,-100.00,NW,311,5.0,14.0,76,0.01,,,0.07,meteohub,2013-03-01 19:12:00,
2013-03-01 13:17:00,30.9,24.6,-100.00,North,0,12.0,15.0,77,0.01,,,0.07,meteohub,2013-03-01 19:17:00,
2013-03-01 13:22:00,30.9,24.3,-100.00,NW,320,0.0,15.0,76,0.01,,,0.07,meteohub,2013-03-01 19:22:00,
2013-03-01 13:27:00,30.9,24.6,-100.00,WNW,302,2.0,13.0,77,0.01,,,0.07,meteohub,2013-03-01 19:27:00,
2013-03-01 13:32:00,30.9,24.3,-100.00,NW,319,5.0,13.0,76,0.01,,,0.07,meteohub,2013-03-01 19:32:00,
2013-03-01 13:37:00,31.3,24.6,-100.00,NNW,338,5.0,13.0,76,0.00,,,0.07,meteohub,2013-03-01 19:37:00,
2013-03-01 13:42:00,31.5,24.8,-100.00,NW,315,4.0,14.0,76,0.00,,,0.07,meteohub,2013-03-01 19:42:00,
2013-03-01 13:47:00,31.6,25.0,-100.00,West,271,3.0,14.0,76,0.00,,,0.07,meteohub,2013-03-01 19:47:00,
2013-03-01 13:52:00,31.8,24.1,-100.00,NW,311,6.0,14.0,73,0.00,,,0.07,meteohub,2013-03-01 19:52:00,
2013-03-01 13:57:00,31.6,23.9,-100.00,NNW,327,12.0,13.0,73,0.00,,,0.07,meteohub,2013-03-01 19:57:00,
2013-03-01 14:02:00,31.6,23.9,-100.00,NNW,331,3.0,14.0,73,0.00,,,0.07,meteohub,2013-03-01 20:02:00,
2013-03-01 14:07:00,31.5,23.9,-100.00,NNW,330,9.0,14.0,73,0.00,,,0.07,meteohub,2013-03-01 20:07:00,
2013-03-01 14:12:00,31.5,24.1,-100.00,NW,307,5.0,14.0,74,0.00,,,0.07,meteohub,2013-03-01 20:12:00,
2013-03-01 14:17:00,31.3,23.9,-100.00,East,83,2.0,12.0,74,0.00,,,0.07,meteohub,2013-03-01 20:17:00,
2013-03-01 14:22:00,31.1,23.7,-100.00,NNW,337,5.0,12.0,74,0.00,,,0.07,meteohub,2013-03-01 20:22:00,
2013-03-01 14:27:00,30.9,23.5,-100.00,NW,324,2.0,12.0,74,0.00,,,0.07,meteohub,2013-03-01 20:27:00,
2013-03-01 14:32:00,30.9,23.9,-100.00,NNW,327,7.0,12.0,75,0.00,,,0.07,meteohub,2013-03-01 20:32:00,
2013-03-01 14:37:00,30.7,23.7,-100.00,NNW,327,5.0,12.0,75,0.00,,,0.07,meteohub,2013-03-01 20:37:00,
2013-03-01 14:42:00,30.6,23.5,-100.00,NW,319,6.0,12.0,75,0.00,,,0.07,meteohub,2013-03-01 20:42:00,
2013-03-01 14:47:00,31.1,24.4,-100.00,NNW,346,5.0,15.0,76,0.00,,,0.07,meteohub,2013-03-01 20:47:00,
2013-03-01 14:52:00,31.5,23.9,-100.00,WNW,298,3.0,15.0,73,0.00,,,0.07,meteohub,2013-03-01 20:52:00,
2013-03-01 14:57:00,31.6,23.9,-100.00,NNW,334,7.0,12.0,73,0.00,,,0.07,meteohub,2013-03-01 20:57:00,
2013-03-01 15:02:00,31.6,23.7,-100.00,NW,321,6.0,13.0,72,0.00,,,0.07,meteohub,2013-03-01 21:02:00,
2013-03-01 15:07:00,31.5,23.5,-100.00,NNW,342,9.0,13.0,72,0.00,,,0.07,meteohub,2013-03-01 21:07:00,
2013-03-01 15:12:00,31.3,23.7,-100.00,NW,311,3.0,14.0,73,0.00,,,0.07,meteohub,2013-03-01 21:12:00,
2013-03-01 15:17:00,30.9,23.4,-100.00,NW,306,5.0,14.0,73,0.00,,,0.07,meteohub,2013-03-01 21:17:00,
2013-03-01 15:22:00,31.1,24.1,-100.00,NNW,348,12.0,14.0,75,0.00,,,0.07,meteohub,2013-03-01 21:22:00,
2013-03-01 15:27:00,30.9,24.3,-100.00,NW,318,2.0,13.0,76,0.00,,,0.07,meteohub,2013-03-01 21:27:00,
2013-03-01 15:32:00,30.9,24.3,-100.00,NE,41,1.0,12.0,76,0.00,,,0.07,meteohub,2013-03-01 21:32:00,
2013-03-01 15:37:00,30.7,24.1,-100.00,ESE,111,2.0,12.0,76,0.00,,,0.07,meteohub,2013-03-01 21:37:00,
2013-03-01 15:42:00,30.6,23.9,-100.00,WNW,290,2.0,13.0,76,0.00,,,0.07,meteohub,2013-03-01 21:42:00,
2013-03-01 15:47:00,30.4,23.7,-100.00,WNW,295,7.0,13.0,76,0.00,,,0.07,meteohub,2013-03-01 21:47:00,
2013-03-01 15:52:00,30.2,23.9,-100.00,North,0,6.0,14.0,77,0.00,,,0.07,meteohub,2013-03-01 21:52:00,
2013-03-01 15:57:00,29.8,23.9,-100.00,North,349,9.0,14.0,78,0.00,,,0.07,meteohub,2013-03-01 21:57:00,
2013-03-01 16:02:00,29.7,24.3,-100.00,NNW,340,6.0,14.0,80,0.00,,,0.07,meteohub,2013-03-01 22:02:00,
2013-03-01 16:07:00,29.1,24.6,-100.00,NW,324,6.0,14.0,83,0.00,,,0.07,meteohub,2013-03-01 22:07:00,
2013-03-01 16:12:00,29.1,25.0,-100.00,NW,316,4.0,14.0,84,0.00,,,0.07,meteohub,2013-03-01 22:12:00,
2013-03-01 16:17:00,29.3,25.3,-100.00,NNW,334,8.0,14.0,85,0.00,,,0.07,meteohub,2013-03-01 22:17:00,
2013-03-01 16:22:00,29.5,25.2,-100.00,NNW,335,6.0,12.0,84,0.00,,,0.07,meteohub,2013-03-01 22:22:00,
2013-03-01 16:28:00,29.3,24.8,-100.00,NNW,327,2.0,12.0,83,0.00,,,0.07,meteohub,2013-03-01 22:28:00,
2013-03-01 16:29:00,29.3,24.8,-100.00,WNW,301,7.0,12.0,83,0.00,,,0.07,meteohub,2013-03-01 22:29:00,
2013-03-01 16:34:00,29.1,24.1,-100.00,WSW,244,2.0,12.0,81,0.00,,,0.07,meteohub,2013-03-01 22:34:00,
2013-03-01 16:39:00,28.9,23.5,-100.00,NW,309,8.0,12.0,80,0.00,,,0.07,meteohub,2013-03-01 22:39:00,
2013-03-01 16:44:00,28.9,23.2,-100.00,NNE,26,1.0,13.0,79,0.00,,,0.07,meteohub,2013-03-01 22:44:00,
2013-03-01 16:49:00,28.8,23.0,-100.00,WNW,302,5.0,15.0,79,0.00,,,0.07,meteohub,2013-03-01 22:49:00,
2013-03-01 16:54:00,28.8,23.0,-100.00,NNW,330,9.0,15.0,79,0.00,,,0.07,meteohub,2013-03-01 22:54:00,
2013-03-01 16:59:00,28.6,22.8,-100.00,NW,326,5.0,15.0,79,0.00,,,0.07,meteohub,2013-03-01 22:59:00,
2013-03-01 17:04:00,28.4,22.6,-100.00,NW,314,3.0,12.0,79,0.00,,,0.07,meteohub,2013-03-01 23:04:00,
2013-03-01 17:09:00,28.4,22.6,-100.00,NNW,331,4.0,12.0,79,0.00,,,0.07,meteohub,2013-03-01 23:09:00,
2013-03-01 17:15:00,28.2,22.6,-100.00,NNW,334,7.0,13.0,79,0.00,,,0.07,meteohub,2013-03-01 23:15:00,
2013-03-01 17:20:00,28.2,22.8,-100.00,NNW,333,11.0,13.0,80,0.00,,,0.07,meteohub,2013-03-01 23:20:00,
2013-03-01 17:25:00,28.0,22.6,-100.00,NNW,345,3.0,13.0,80,0.00,,,0.07,meteohub,2013-03-01 23:25:00,
2013-03-01 17:30:00,28.0,23.0,-100.00,NNW,331,4.0,13.0,81,0.00,,,0.07,meteohub,2013-03-01 23:30:00,
2013-03-01 17:35:00,27.9,22.8,-100.00,NW,323,4.0,13.0,81,0.00,,,0.07,meteohub,2013-03-01 23:35:00,
2013-03-01 17:40:00,27.9,22.8,-100.00,NW,317,6.0,11.0,81,0.00,,,0.07,meteohub,2013-03-01 23:40:00,
2013-03-01 17:45:00,27.9,22.8,-100.00,WNW,294,3.0,9.0,81,0.00,,,0.07,meteohub,2013-03-01 23:45:00,
2013-03-01 17:50:00,27.9,23.0,-100.00,NW,315,4.0,9.0,82,0.00,,,0.07,meteohub,2013-03-01 23:50:00,
2013-03-01 17:55:00,27.7,22.8,-100.00,NW,315,2.0,9.0,82,0.00,,,0.07,meteohub,2013-03-01 23:55:00,
2013-03-01 18:00:00,27.7,23.2,-100.00,WNW,287,1.0,6.0,83,0.00,,,0.07,meteohub,2013-03-02 00:00:00,
2013-03-01 18:05:00,27.7,23.2,-100.00,WNW,302,0.0,6.0,83,0.00,,,0.00,meteohub,2013-03-02 00:05:00,
2013-03-01 18:10:00,27.7,23.2,-100.00,NW,314,0.0,5.0,83,0.00,,,0.00,meteohub,2013-03-02 00:10:00,
2013-03-01 18:15:00,27.7,23.2,-100.00,NW,321,0.0,5.0,83,0.00,,,0.00,meteohub,2013-03-02 00:15:00,
2013-03-01 18:20:00,27.7,23.2,-100.00,WSW,248,0.0,5.0,83,0.00,,,0.00,meteohub,2013-03-02 00:20:00,
2013-03-01 18:25:00,27.7,23.2,-100.00,WNW,300,0.0,5.0,83,0.00,,,0.00,meteohub,2013-03-02 00:25:00,
2013-03-01 18:30:00,27.7,22.8,-100.00,WNW,299,0.0,5.0,82,0.00,,,0.00,meteohub,2013-03-02 00:30:00,
2013-03-01 18:35:00,27.7,22.8,-100.00,WNW,295,0.0,5.0,82,0.00,,,0.00,meteohub,2013-03-02 00:35:00,
2013-03-01 18:40:00,27.7,22.8,-100.00,NW,306,3.0,5.0,82,0.00,,,0.00,meteohub,2013-03-02 00:40:00,
2013-03-01 18:45:00,27.7,22.6,-100.00,NW,319,4.0,5.0,81,0.00,,,0.00,meteohub,2013-03-02 00:45:00,
2013-03-01 18:50:00,27.7,22.3,-100.00,NW,325,0.0,5.0,80,0.00,,,0.00,meteohub,2013-03-02 00:50:00,
2013-03-01 18:55:00,27.7,22.3,-100.00,WNW,300,0.0,5.0,80,0.00,,,0.00,meteohub,2013-03-02 00:55:00,
2013-03-01 19:00:00,27.7,22.1,-100.00,NW,325,2.0,5.0,79,0.00,,,0.00,meteohub,2013-03-02 01:00:00,
2013-03-01 19:06:00,27.5,21.9,-100.00,NW,314,4.0,5.0,79,0.00,,,0.00,meteohub,2013-03-02 01:06:00,
2013-03-01 19:11:00,27.3,21.4,-100.00,NNW,330,4.0,9.0,78,0.00,,,0.00,meteohub,2013-03-02 01:11:00,
2013-03-01 19:16:00,27.3,21.4,-100.00,NW,314,2.0,9.0,78,0.00,,,0.00,meteohub,2013-03-02 01:16:00,
2013-03-01 19:21:00,27.1,20.8,-100.00,WNW,303,0.0,11.0,77,0.00,,,0.00,meteohub,2013-03-02 01:21:00,
2013-03-01 19:26:00,27.0,20.7,-100.00,North,0,7.0,11.0,77,0.00,,,0.00,meteohub,2013-03-02 01:26:00,
2013-03-01 19:31:00,26.8,20.5,-100.00,NNW,333,5.0,12.0,77,0.00,,,0.00,meteohub,2013-03-02 01:31:00,
2013-03-01 19:36:00,26.8,20.5,-100.00,NW,309,5.0,12.0,77,0.00,,,0.00,meteohub,2013-03-02 01:36:00,
2013-03-01 19:41:00,26.4,20.1,-100.00,NW,326,7.0,13.0,77,0.00,,,0.00,meteohub,2013-03-02 01:41:00,
2013-03-01 19:46:00,26.2,20.3,-100.00,NW,315,2.0,13.0,78,0.00,,,0.00,meteohub,2013-03-02 01:46:00,
2013-03-01 19:51:00,26.1,20.1,-100.00,WSW,245,1.0,12.0,78,0.00,,,0.00,meteohub,2013-03-02 01:51:00,
2013-03-01 19:56:00,25.9,20.3,-100.00,NNW,328,5.0,12.0,79,0.00,,,0.00,meteohub,2013-03-02 01:56:00,
2013-03-01 20:01:00,25.5,20.3,-100.00,NW,319,3.0,12.0,80,0.00,,,0.00,meteohub,2013-03-02 02:01:00,
2013-03-01 20:06:00,25.3,20.1,-100.00,NW,324,2.0,12.0,80,0.00,,,0.00,meteohub,2013-03-02 02:06:00,
2013-03-01 20:11:00,25.2,20.1,-100.00,NW,315,2.0,10.0,81,0.00,,,0.00,meteohub,2013-03-02 02:11:00,
2013-03-01 20:16:00,25.2,20.1,-100.00,NNW,338,4.0,6.0,81,0.00,,,0.00,meteohub,2013-03-02 02:16:00,
2013-03-01 20:21:00,25.0,20.3,-100.00,NW,313,0.0,9.0,82,0.00,,,0.00,meteohub,2013-03-02 02:21:00,
2013-03-01 20:26:00,25.0,20.3,-100.00,NW,323,2.0,9.0,82,0.00,,,0.00,meteohub,2013-03-02 02:26:00,
2013-03-01 20:31:00,25.0,20.5,-100.00,NW,321,2.0,9.0,83,0.00,,,0.00,meteohub,2013-03-02 02:31:00,
2013-03-01 20:36:00,25.0,20.5,-100.00,NNW,327,1.0,5.0,83,0.00,,,0.00,meteohub,2013-03-02 02:36:00,
2013-03-01 20:41:00,25.0,20.5,-100.00,NW,315,1.0,6.0,83,0.00,,,0.00,meteohub,2013-03-02 02:41:00,
2013-03-01 20:46:00,25.2,21.0,-100.00,NW,321,3.0,6.0,84,0.00,,,0.00,meteohub,2013-03-02 02:46:00,
2013-03-01 20:51:00,25.2,21.4,-100.00,NW,312,0.0,6.0,85,0.00,,,0.00,meteohub,2013-03-02 02:51:00,
2013-03-01 20:56:00,25.0,21.2,-100.00,NW,323,2.0,5.0,85,0.00,,,0.00,meteohub,2013-03-02 02:56:00,
2013-03-01 21:01:00,25.0,21.4,-100.00,NW,319,0.0,5.0,86,0.00,,,0.00,meteohub,2013-03-02 03:01:00,
2013-03-01 21:06:00,24.8,21.2,-100.00,NW,318,0.0,5.0,86,0.00,,,0.00,meteohub,2013-03-02 03:06:00,
2013-03-01 21:11:00,24.8,21.2,-100.00,NW,307,0.0,5.0,86,0.00,,,0.00,meteohub,2013-03-02 03:11:00,
2013-03-01 21:16:00,24.8,21.2,-100.00,NW,322,3.0,4.0,86,0.00,,,0.00,meteohub,2013-03-02 03:16:00,
2013-03-01 21:21:00,24.8,21.2,-100.00,NW,314,2.0,6.0,86,0.00,,,0.00,meteohub,2013-03-02 03:21:00,
2013-03-01 21:26:00,24.8,21.2,-100.00,NW,314,2.0,9.0,86,0.00,,,0.00,meteohub,2013-03-02 03:26:00,
2013-03-01 21:31:00,24.6,21.4,-100.00,NW,323,0.0,9.0,87,0.00,,,0.00,meteohub,2013-03-02 03:31:00,
2013-03-01 21:36:00,24.6,21.4,-100.00,NW,317,2.0,9.0,87,0.00,,,0.00,meteohub,2013-03-02 03:36:00,
2013-03-01 21:41:00,24.6,21.4,-100.00,WNW,303,2.0,6.0,87,0.00,,,0.00,meteohub,2013-03-02 03:41:00,
2013-03-01 21:46:00,24.6,21.4,-100.00,NW,306,0.0,5.0,87,0.00,,,0.00,meteohub,2013-03-02 03:46:00,
2013-03-01 21:51:00,24.6,21.4,-100.00,WNW,300,0.0,5.0,87,0.00,,,0.00,meteohub,2013-03-02 03:51:00,
2013-03-01 21:56:00,24.6,21.4,-100.00,NW,309,0.0,5.0,87,0.00,,,0.00,meteohub,2013-03-02 03:56:00,
2013-03-01 22:01:00,24.6,21.4,-100.00,NW,304,0.0,5.0,87,0.00,,,0.00,meteohub,2013-03-02 04:01:00,
2013-03-01 22:06:00,24.8,21.7,-100.00,WNW,302,0.0,5.0,88,0.00,,,0.00,meteohub,2013-03-02 04:06:00,
2013-03-01 22:11:00,24.6,21.6,-100.00,WNW,302,0.0,5.0,88,0.00,,,0.00,meteohub,2013-03-02 04:11:00,
2013-03-01 22:16:00,24.8,21.7,-100.00,WNW,301,0.0,4.0,88,0.00,,,0.00,meteohub,2013-03-02 04:16:00,
2013-03-01 22:21:00,24.8,21.7,-100.00,NW,309,2.0,3.0,88,0.00,,,0.00,meteohub,2013-03-02 04:21:00,
2013-03-01 22:26:00,25.0,21.9,-100.00,NW,309,4.0,5.0,88,0.00,,,0.00,meteohub,2013-03-02 04:26:00,
2013-03-01 22:31:00,25.0,21.9,-100.00,NW,310,3.0,5.0,88,0.00,,,0.00,meteohub,2013-03-02 04:31:00,
2013-03-01 22:36:00,25.2,22.1,-100.00,NW,312,0.0,6.0,88,0.00,,,0.00,meteohub,2013-03-02 04:36:00,
2013-03-01 22:41:00,25.2,22.5,-100.00,NW,310,4.0,6.0,89,0.00,,,0.00,meteohub,2013-03-02 04:41:00,
2013-03-01 22:46:00,25.3,22.6,-100.00,NW,305,5.0,6.0,89,0.00,,,0.00,meteohub,2013-03-02 04:46:00,
2013-03-01 22:51:00,25.3,22.6,-100.00,NW,309,3.0,10.0,89,0.00,,,0.00,meteohub,2013-03-02 04:51:00,
2013-03-01 22:56:00,25.3,22.6,-100.00,NW,310,4.0,10.0,89,0.00,,,0.00,meteohub,2013-03-02 04:56:00,
2013-03-01 23:00:00,25.3,22.6,-100.00,NNW,327,3.0,10.0,89,0.00,,,0.00,meteohub,2013-03-02 05:00:00,
2013-03-01 23:05:00,25.3,22.6,-100.00,NNW,337,4.0,10.0,89,0.00,,,0.00,meteohub,2013-03-02 05:05:00,
2013-03-01 23:10:00,25.3,22.6,-100.00,NW,308,1.0,7.0,89,0.00,,,0.00,meteohub,2013-03-02 05:10:00,
2013-03-01 23:15:00,25.3,22.6,-100.00,NW,311,0.0,7.0,89,0.00,,,0.00,meteohub,2013-03-02 05:15:00,
2013-03-01 23:20:00,25.3,22.8,-100.00,NW,323,0.0,6.0,90,0.00,,,0.00,meteohub,2013-03-02 05:20:00,
2013-03-01 23:25:00,25.3,22.8,-100.00,NW,319,3.0,5.0,90,0.00,,,0.00,meteohub,2013-03-02 05:25:00,
2013-03-01 23:30:00,25.3,22.8,-100.00,WNW,287,3.0,5.0,90,0.00,,,0.00,meteohub,2013-03-02 05:30:00,
2013-03-01 23:35:00,25.3,22.8,-100.00,WNW,298,0.0,5.0,90,0.00,,,0.00,meteohub,2013-03-02 05:35:00,
2013-03-01 23:40:00,25.3,22.8,-100.00,West,276,2.0,6.0,90,0.00,,,0.00,meteohub,2013-03-02 05:40:00,
2013-03-01 23:45:00,25.3,22.8,-100.00,NW,311,0.0,7.0,90,0.00,,,0.00,meteohub,2013-03-02 05:45:00,
2013-03-01 23:50:00,25.3,22.8,-100.00,NW,311,3.0,7.0,90,0.00,,,0.00,meteohub,2013-03-02 05:50:00,
2013-03-01 23:55:00,25.3,22.8,-100.00,NW,304,5.0,8.0,90,0.00,,,0.00,meteohub,2013-03-02 05:55:00,